Argonia, KS (67004)

12:25 AM CST on February 14, 2016 (GMT -0600)
farm | | Change Station
CLOSE
Current Station
Personal Weather Station
Location: Wellington, KS
Elevation: 1191 ft
Nearby Weather Stations

Elev 1191 ft 37.14 °N, 97.54 °W | Updated 54 seconds ago

Mostly Cloudy
Mostly Cloudy
35.6 °F
Feels Like 30 °F
N
6.3
Wind Variable Wind from ESE

Today
High -- | Low -- °F
--% Chance of Precip.
Yesterday
High -- | Low -- °F
Precip. -- in
Pressure 30.04 in
Visibility 10.0 miles
Clouds Mostly Cloudy 15000 ft
Windchill 30 °F
Dew Point 25 °F
Humidity 65%
Rainfall 0.00 in
Snow Depth Not available.
7:21 AM 6:09 PM
Waxing Crescent, 38% visible
METAR KICT 140553Z 11011KT 10SM BKN150 M01/M12 A3000 RMK AO2 SLP170 T10111117 10050 21011 400721050 56034
Pressure 30.04 in
Visibility 10.0 miles
Clouds Mostly Cloudy 15000 ft
Windchill 30 °F
Dew Point 25 °F
Humidity 65%
Rainfall 0.00 in
Snow Depth Not available.
7:21 AM 6:09 PM
Waxing Crescent, 38% visible
METAR KICT 140553Z 11011KT 10SM BKN150 M01/M12 A3000 RMK AO2 SLP170 T10111117 10050 21011 400721050 56034

10-Day Weather Forecast

Almanac

Astronomy

Feb. 14, 2016 Rise Set
Actual Time
Civil Twilight
Nautical Twilight
Astronomical Twilight
Moon
Length of Visible Light
Length of Day
Tomorrow will be .
, % of the Moon is Illuminated

Today's Extremes

State Highs State Lows

Community

WunderPhotos

Upload Photos

1,892,753 photos uploaded!

WunderBlog® & News

Nearby

Air Quality

  Air Quality AQ Index Pollutant
Not available.

Snow Depth

Station Depth Elevation

Earthquake Activity

City Distance Mag. Time & Date
Minimum magnitude displayed is 2.5.

Coastal Water Temperatures

Place Temperature

Stations

Nearby Weather Stations

Station Location Temp. Windchill Dew Point Humidity Wind Precip. Elev Updated Type
                   

Watches & Warnings

There are currently no watches in effect.